Time;durP1;ratioP1;P1;durP2;ratioP2;P2;SDS_P1;SDS_P2;PMS_P1;PMS_P2;Temp;Humidity;BMP_temperature;BMP_pressure;BME280_temperature;BME280_humidity;BME280_pressure;Samples;Min_cycle;Max_cycle;Signal;HPM_P1;HPM_P2
2021/07/16 00:02:32;;;;;;;34.73;21.67;;;20.30;99.90;;;;;;5153525;27;20359;-70
2021/07/16 00:05:22;;;;;;;32.63;21.50;;;20.30;99.90;;;;;;5146540;27;20198;-71
2021/07/16 00:08:10;;;;;;;35.23;20.83;;;20.30;99.90;;;;;;5134150;27;20688;-71
2021/07/16 00:10:57;;;;;;;35.00;19.93;;;20.30;99.90;;;;;;5133214;27;20207;-70
2021/07/16 00:13:45;;;;;;;31.50;19.30;;;20.30;99.90;;;;;;5134219;27;20186;-70
2021/07/16 00:16:32;;;;;;;28.30;18.57;;;20.40;99.90;;;;;;5133459;27;20198;-70
2021/07/16 00:19:20;;;;;;;28.63;19.13;;;20.30;99.90;;;;;;5127315;27;20219;-71
2021/07/16 00:22:09;;;;;;;31.87;20.40;;;20.30;99.90;;;;;;5143203;27;20219;-71
2021/07/16 00:24:56;;;;;;;34.70;20.83;;;20.30;99.90;;;;;;5139645;27;20213;-71
2021/07/16 00:27:44;;;;;;;36.07;21.80;;;20.30;99.90;;;;;;5133995;27;20202;-71
2021/07/16 00:30:32;;;;;;;35.33;21.47;;;20.30;99.90;;;;;;5128985;27;20187;-70
2021/07/16 00:33:19;;;;;;;29.03;20.20;;;20.30;99.90;;;;;;5132699;27;20319;-72
2021/07/16 00:36:07;;;;;;;29.53;19.77;;;20.20;99.90;;;;;;5140422;27;20205;-70
2021/07/16 00:38:56;;;;;;;40.77;21.27;;;20.20;99.90;;;;;;5142789;27;20198;-71
2021/07/16 00:41:43;;;;;;;31.23;19.23;;;20.20;99.90;;;;;;5152029;27;20194;-71
2021/07/16 00:44:33;;;;;;;40.40;22.07;;;20.10;99.90;;;;;;5142208;27;20198;-71
2021/07/16 00:47:20;;;;;;;36.30;21.60;;;20.10;99.90;;;;;;5139246;27;20224;-71
2021/07/16 00:50:09;;;;;;;36.23;21.00;;;20.10;99.90;;;;;;5118181;27;20190;-71
2021/07/16 00:53:02;;;;;;;38.53;22.60;;;20.00;99.90;;;;;;5151831;27;20216;-70
2021/07/16 00:55:51;;;;;;;36.70;20.83;;;20.00;99.90;;;;;;5141925;27;20194;-71
2021/07/16 00:58:39;;;;;;;36.63;22.00;;;19.90;99.90;;;;;;5136557;27;20195;-71
2021/07/16 01:01:26;;;;;;;38.50;23.33;;;19.80;99.90;;;;;;5142159;27;20297;-71
2021/07/16 01:04:14;;;;;;;40.13;22.20;;;19.80;99.90;;;;;;5140830;27;20217;-71
2021/07/16 01:07:03;;;;;;;37.43;22.07;;;19.80;99.90;;;;;;5152314;27;20653;-70
2021/07/16 01:09:51;;;;;;;35.47;22.67;;;19.70;99.90;;;;;;5153242;27;20550;-71
2021/07/16 01:12:40;;;;;;;42.50;23.60;;;19.60;99.90;;;;;;5132551;27;20270;-71
2021/07/16 01:15:30;;;;;;;38.43;23.30;;;19.60;99.90;;;;;;5132683;27;20293;-71
2021/07/16 01:18:17;;;;;;;40.80;24.30;;;19.60;99.90;;;;;;5131820;27;20238;-71
2021/07/16 01:21:05;;;;;;;39.77;22.50;;;19.60;99.90;;;;;;5130534;27;20531;-71
2021/07/16 01:23:54;;;;;;;36.37;22.33;;;19.60;99.90;;;;;;5141041;27;20681;-72
2021/07/16 01:26:42;;;;;;;34.67;22.77;;;19.60;99.90;;;;;;5136833;27;20201;-71
2021/07/16 01:29:29;;;;;;;37.70;22.53;;;19.60;99.90;;;;;;5152457;27;20202;-71
2021/07/16 01:32:17;;;;;;;35.00;21.90;;;19.60;99.90;;;;;;5116401;27;20206;-72
2021/07/16 01:35:05;;;;;;;35.60;23.20;;;19.70;99.90;;;;;;5150195;27;20197;-72
2021/07/16 01:37:53;;;;;;;42.07;22.87;;;19.70;99.90;;;;;;5132167;27;20194;-72
2021/07/16 01:40:42;;;;;;;33.60;21.40;;;19.80;99.90;;;;;;5144067;27;20213;-72
2021/07/16 01:43:30;;;;;;;35.10;22.50;;;19.80;99.90;;;;;;5132041;27;20226;-71
2021/07/16 01:46:17;;;;;;;40.10;22.27;;;19.80;99.90;;;;;;5142159;27;20214;-72
2021/07/16 01:49:05;;;;;;;38.17;20.27;;;19.90;99.90;;;;;;5125653;27;20548;-72
2021/07/16 01:51:52;;;;;;;35.97;20.43;;;19.90;99.90;;;;;;5132006;27;20216;-71
2021/07/16 01:54:40;;;;;;;37.07;21.10;;;19.90;99.90;;;;;;5137198;27;20189;-72
2021/07/16 01:57:29;;;;;;;32.80;22.23;;;20.00;99.90;;;;;;5131740;27;20206;-72
2021/07/16 02:00:18;;;;;;;33.97;22.57;;;20.00;99.90;;;;;;5149316;27;20608;-71
2021/07/16 02:03:06;;;;;;;36.17;19.27;;;20.10;99.90;;;;;;5137895;27;20225;-71
2021/07/16 02:05:54;;;;;;;35.80;20.80;;;20.10;99.90;;;;;;5149043;27;20197;-72
2021/07/16 02:08:41;;;;;;;38.07;20.90;;;20.00;99.90;;;;;;5133641;27;20198;-72
2021/07/16 02:11:29;;;;;;;37.37;23.43;;;20.10;99.90;;;;;;5141842;27;20626;-71
2021/07/16 02:14:18;;;;;;;51.87;26.67;;;20.10;99.90;;;;;;5142740;27;20225;-71
2021/07/16 02:17:06;;;;;;;44.07;25.57;;;20.20;99.90;;;;;;5140082;27;20202;-72
2021/07/16 02:19:53;;;;;;;40.53;24.57;;;20.20;99.90;;;;;;5137926;27;20236;-71
2021/07/16 02:22:41;;;;;;;46.10;25.57;;;20.30;99.90;;;;;;5148253;27;20205;-72
2021/07/16 02:25:28;;;;;;;61.77;34.37;;;20.30;99.90;;;;;;5131570;27;20645;-72
2021/07/16 02:28:17;;;;;;;66.10;36.60;;;20.30;99.90;;;;;;5133786;27;20197;-71
2021/07/16 02:31:06;;;;;;;45.67;24.30;;;20.20;99.90;;;;;;5151180;27;20198;-71
2021/07/16 02:33:54;;;;;;;46.43;26.30;;;20.20;99.90;;;;;;5140173;27;20201;-72
2021/07/16 02:36:42;;;;;;;57.77;32.13;;;20.20;99.90;;;;;;5149865;27;20216;-72
2021/07/16 02:39:30;;;;;;;64.17;34.17;;;20.20;99.90;;;;;;5152084;27;20194;-72
2021/07/16 02:42:17;;;;;;;64.57;34.97;;;20.20;99.90;;;;;;5151350;27;20209;-72
2021/07/16 02:45:07;;;;;;;73.13;36.47;;;20.20;99.90;;;;;;5130769;27;20187;-72
2021/07/16 02:47:56;;;;;;;67.00;36.37;;;20.20;99.90;;;;;;5141519;27;20557;-72
2021/07/16 02:50:45;;;;;;;67.57;36.67;;;20.20;99.90;;;;;;5150423;27;20225;-72
2021/07/16 02:53:33;;;;;;;73.13;35.10;;;20.20;99.90;;;;;;5140526;27;20195;-71
2021/07/16 02:56:23;;;;;;;68.40;34.47;;;20.20;99.90;;;;;;5131307;27;20668;-72
2021/07/16 02:59:12;;;;;;;63.70;34.60;;;20.20;99.90;;;;;;5127488;27;20194;-72
2021/07/16 03:02:52;;;;;;;59.73;31.83;;;20.20;99.90;;;;;;5153013;27;20561;-72
2021/07/16 03:05:41;;;;;;;59.03;33.33;;;20.20;99.90;;;;;;5155681;27;20209;-72
2021/07/16 03:08:29;;;;;;;79.33;34.83;;;20.20;99.90;;;;;;5156907;27;20640;-72
2021/07/16 03:11:16;;;;;;;72.87;37.13;;;20.10;99.90;;;;;;5153974;27;20198;-72
2021/07/16 03:14:04;;;;;;;81.17;37.83;;;20.10;99.90;;;;;;5129340;27;20210;-72
2021/07/16 03:16:51;;;;;;;67.30;36.53;;;20.20;99.90;;;;;;5138941;27;20198;-72
2021/07/16 03:19:39;;;;;;;74.57;37.20;;;20.20;99.90;;;;;;5154263;27;20240;-72
2021/07/16 03:22:28;;;;;;;77.90;36.87;;;20.20;99.90;;;;;;5136702;27;20209;-72
2021/07/16 03:25:16;;;;;;;67.97;36.17;;;20.30;99.90;;;;;;5144472;27;20209;-72
2021/07/16 03:28:04;;;;;;;70.87;37.00;;;20.30;99.90;;;;;;5154521;27;20226;-72
2021/07/16 03:30:52;;;;;;;78.40;38.77;;;20.30;99.90;;;;;;5148607;27;20875;-72
2021/07/16 03:33:39;;;;;;;74.00;38.10;;;20.30;99.90;;;;;;5153537;27;20205;-72
2021/07/16 03:36:27;;;;;;;83.33;38.47;;;20.30;99.90;;;;;;5134476;27;20210;-72
2021/07/16 03:39:16;;;;;;;73.80;35.50;;;20.40;99.90;;;;;;5151642;27;20924;-72
2021/07/16 03:42:04;;;;;;;75.53;38.07;;;20.40;99.90;;;;;;5154201;27;20651;-72
2021/07/16 03:44:51;;;;;;;65.23;33.27;;;20.40;99.90;;;;;;5127154;27;20222;-72
2021/07/16 03:47:39;;;;;;;81.27;38.87;;;20.40;99.90;;;;;;5151476;27;20218;-72
2021/07/16 03:50:26;;;;;;;85.63;39.43;;;20.40;99.90;;;;;;5154498;27;20197;-71
2021/07/16 03:53:14;;;;;;;87.33;38.70;;;20.40;99.90;;;;;;5138651;27;20195;-72
2021/07/16 03:56:03;;;;;;;112.57;45.03;;;20.40;99.90;;;;;;5134079;27;20187;-72
2021/07/16 03:58:51;;;;;;;114.40;41.77;;;20.40;99.90;;;;;;5142083;27;20242;-72
2021/07/16 04:01:38;;;;;;;95.17;39.37;;;20.30;99.90;;;;;;5140211;27;20194;-72
2021/07/16 04:04:26;;;;;;;86.07;39.43;;;20.30;99.90;;;;;;5133744;27;20245;-72
2021/07/16 04:07:17;;;;;;;91.10;39.33;;;20.30;99.90;;;;;;5133943;27;20313;-72
2021/07/16 04:10:05;;;;;;;94.87;41.77;;;20.20;99.90;;;;;;5129686;27;20194;-72
2021/07/16 04:12:57;;;;;;;87.90;40.20;;;20.20;99.90;;;;;;5135946;27;20193;-72
2021/07/16 04:15:45;;;;;;;84.93;40.00;;;20.20;99.90;;;;;;5138697;27;20220;-72
2021/07/16 04:18:33;;;;;;;78.40;40.00;;;20.10;99.90;;;;;;5151283;27;20237;-72
2021/07/16 04:21:21;;;;;;;80.83;39.20;;;20.10;99.90;;;;;;5151778;27;20186;-72
2021/07/16 04:24:08;;;;;;;92.90;41.70;;;20.10;99.90;;;;;;5153811;27;20218;-72
2021/07/16 04:26:56;;;;;;;109.63;42.43;;;20.10;99.90;;;;;;5154816;27;20579;-72
2021/07/16 04:29:45;;;;;;;147.80;47.23;;;20.10;99.90;;;;;;5144210;27;20202;-72
2021/07/16 04:32:32;;;;;;;112.20;45.03;;;20.00;99.90;;;;;;5132833;27;20197;-72
2021/07/16 04:35:20;;;;;;;108.97;46.57;;;20.00;99.90;;;;;;5142426;27;20687;-72
2021/07/16 04:38:07;;;;;;;116.00;48.60;;;20.00;99.90;;;;;;5127530;27;20267;-72
2021/07/16 04:40:55;;;;;;;92.57;43.67;;;20.00;99.90;;;;;;5134406;27;20202;-72
2021/07/16 04:43:42;;;;;;;96.47;43.37;;;19.90;99.90;;;;;;5128736;27;20218;-72
2021/07/16 04:46:32;;;;;;;82.27;40.97;;;19.90;99.90;;;;;;5143929;27;20222;-72
2021/07/16 04:49:19;;;;;;;74.93;37.17;;;19.80;99.90;;;;;;5152645;27;20213;-72
2021/07/16 04:52:07;;;;;;;68.87;37.17;;;19.80;99.90;;;;;;5134046;27;20645;-72
2021/07/16 04:55:04;;;;;;;74.93;36.07;;;19.80;99.90;;;;;;5133031;27;20208;-72
2021/07/16 04:57:52;;;;;;;66.17;34.77;;;19.80;99.90;;;;;;5138021;27;20577;-73
2021/07/16 05:00:44;;;;;;;73.23;36.60;;;19.70;99.90;;;;;;5151938;27;20558;-72
2021/07/16 05:03:47;;;;;;;89.53;41.40;;;19.70;99.90;;;;;;5132650;27;20198;-72
2021/07/16 05:06:38;;;;;;;76.70;38.77;;;19.50;99.90;;;;;;5125156;27;20193;-71
2021/07/16 05:09:31;;;;;;;87.03;40.10;;;19.40;99.90;;;;;;5139251;27;20401;-71
2021/07/16 05:12:21;;;;;;;85.07;41.17;;;19.40;99.90;;;;;;5142207;27;20287;-72
2021/07/16 05:15:13;;;;;;;78.57;40.17;;;19.40;99.90;;;;;;5122134;27;20202;-72
2021/07/16 05:18:05;;;;;;;76.03;39.20;;;19.40;99.90;;;;;;5142004;27;20521;-72
2021/07/16 05:21:05;;;;;;;69.17;37.03;;;19.40;99.90;;;;;;5133337;27;20208;-72
2021/07/16 05:24:02;;;;;;;61.17;34.20;;;19.40;99.90;;;;;;5130089;27;20255;-71
2021/07/16 05:26:49;;;;;;;65.43;32.50;;;19.40;99.90;;;;;;5135250;27;20797;-71
2021/07/16 05:29:37;;;;;;;53.33;26.90;;;19.40;99.90;;;;;;5133387;27;20557;-71
2021/07/16 05:32:24;;;;;;;49.97;27.50;;;19.40;99.90;;;;;;5142295;27;20213;-72
2021/07/16 05:35:12;;;;;;;44.30;24.40;;;19.30;99.90;;;;;;5137418;27;20647;-72
2021/07/16 05:38:01;;;;;;;39.13;21.73;;;19.30;99.90;;;;;;5144822;27;20202;-72
2021/07/16 05:40:49;;;;;;;36.53;20.20;;;19.30;99.90;;;;;;5124558;27;20195;-72
2021/07/16 05:43:37;;;;;;;26.33;16.13;;;19.40;99.90;;;;;;5132121;27;20273;-71
2021/07/16 05:46:27;;;;;;;30.47;15.13;;;19.50;99.90;;;;;;5133061;27;20217;-71
2021/07/16 05:49:14;;;;;;;30.73;16.10;;;19.50;99.90;;;;;;5129481;27;20210;-72
2021/07/16 05:52:02;;;;;;;26.47;15.33;;;19.50;99.90;;;;;;5125384;27;20205;-70
2021/07/16 05:54:51;;;;;;;24.40;14.77;;;19.60;99.90;;;;;;5149973;27;20205;-71
2021/07/16 05:57:38;;;;;;;29.60;15.70;;;19.70;99.90;;;;;;5137750;27;20552;-71
2021/07/16 06:00:27;;;;;;;33.57;15.47;;;19.80;99.90;;;;;;5132509;27;20204;-71
2021/07/16 06:03:15;;;;;;;25.50;15.53;;;19.80;99.90;;;;;;5150040;27;20202;-71
2021/07/16 06:06:02;;;;;;;34.40;18.53;;;19.90;99.90;;;;;;5132720;27;20187;-71
2021/07/16 06:08:50;;;;;;;32.37;17.47;;;20.00;99.90;;;;;;5148623;27;20201;-71
2021/07/16 06:11:39;;;;;;;33.43;17.17;;;20.00;99.90;;;;;;5125701;27;20194;-71
2021/07/16 06:14:29;;;;;;;33.30;17.63;;;20.10;99.90;;;;;;5133348;27;20205;-72
2021/07/16 06:17:17;;;;;;;40.30;18.97;;;20.20;99.90;;;;;;5145819;27;20208;-66
2021/07/16 06:20:06;;;;;;;43.20;18.80;;;20.30;99.90;;;;;;5151129;27;20233;-66
2021/07/16 06:22:54;;;;;;;39.43;19.67;;;20.40;99.90;;;;;;5150695;27;20194;-66
2021/07/16 06:25:41;;;;;;;47.37;20.57;;;20.40;99.90;;;;;;5151598;27;20266;-66
2021/07/16 06:28:30;;;;;;;63.03;21.63;;;20.30;99.90;;;;;;5149557;27;20214;-66
2021/07/16 06:31:18;;;;;;;57.00;22.43;;;20.10;99.90;;;;;;5141743;27;20199;-66
2021/07/16 06:34:05;;;;;;;57.23;23.60;;;20.20;99.90;;;;;;5136760;27;20202;-66
2021/07/16 06:36:53;;;;;;;48.77;20.43;;;20.30;99.90;;;;;;5153851;27;20189;-67
2021/07/16 06:39:40;;;;;;;46.57;20.53;;;20.50;99.90;;;;;;5156288;27;20206;-66
2021/07/16 06:42:28;;;;;;;50.03;19.93;;;20.60;99.90;;;;;;5147754;27;20272;-66
2021/07/16 06:45:17;;;;;;;45.43;20.30;;;20.70;99.90;;;;;;5147645;27;20301;-66
2021/07/16 06:48:06;;;;;;;44.70;21.27;;;20.70;99.90;;;;;;5135634;27;20285;-66
2021/07/16 06:50:53;;;;;;;38.63;18.60;;;20.70;99.90;;;;;;5135066;27;20197;-66
2021/07/16 06:53:41;;;;;;;40.27;18.83;;;20.70;99.90;;;;;;5147398;27;20205;-66
2021/07/16 06:56:29;;;;;;;38.37;18.63;;;20.70;99.90;;;;;;5136431;27;20192;-65
2021/07/16 06:59:16;;;;;;;41.10;19.43;;;20.80;99.90;;;;;;5153017;27;20770;-65
2021/07/16 07:02:06;;;;;;;38.73;19.57;;;21.00;99.90;;;;;;5142807;27;20203;-66
2021/07/16 07:04:54;;;;;;;41.63;19.37;;;21.00;99.90;;;;;;5134866;27;20745;-66
2021/07/16 07:07:41;;;;;;;39.23;18.77;;;21.00;99.90;;;;;;5144225;27;20198;-66
2021/07/16 07:10:29;;;;;;;53.30;22.30;;;21.00;99.90;;;;;;5134794;27;20198;-66
2021/07/16 07:13:17;;;;;;;55.70;21.27;;;20.90;99.90;;;;;;5135966;27;20199;-66
2021/07/16 07:16:05;;;;;;;59.67;21.93;;;20.90;99.90;;;;;;5136568;27;20626;-66
2021/07/16 07:18:54;;;;;;;54.23;22.23;;;20.90;99.90;;;;;;5134883;27;20710;-66
2021/07/16 07:21:41;;;;;;;61.00;21.47;;;20.80;99.90;;;;;;5145015;27;20278;-65
2021/07/16 07:24:29;;;;;;;60.83;22.83;;;20.70;99.90;;;;;;5144325;27;20210;-65
2021/07/16 07:27:17;;;;;;;59.47;21.77;;;20.70;99.90;;;;;;5153404;27;20200;-66
2021/07/16 07:30:06;;;;;;;58.77;22.60;;;20.70;99.90;;;;;;5154773;27;20198;-66
2021/07/16 07:32:53;;;;;;;67.07;22.77;;;20.80;99.90;;;;;;5146490;27;20204;-66
2021/07/16 07:35:42;;;;;;;60.27;22.93;;;20.90;99.90;;;;;;5150660;27;20614;-66
2021/07/16 07:38:32;;;;;;;59.97;23.73;;;21.00;99.90;;;;;;5142832;27;20202;-67
2021/07/16 07:41:20;;;;;;;57.53;22.87;;;21.10;99.90;;;;;;5127741;27;20283;-67
2021/07/16 07:44:08;;;;;;;69.47;23.10;;;21.20;99.90;;;;;;5132867;27;20240;-65
2021/07/16 07:46:55;;;;;;;60.70;24.10;;;21.30;99.90;;;;;;5120299;27;20234;-66
2021/07/16 07:49:43;;;;;;;62.83;25.63;;;21.40;99.90;;;;;;5136089;27;20206;-67
2021/07/16 07:52:32;;;;;;;62.37;25.80;;;21.30;99.90;;;;;;5131252;27;20210;-66
2021/07/16 07:55:23;;;;;;;60.13;26.10;;;21.20;99.90;;;;;;5134050;27;20763;-67
2021/07/16 07:58:11;;;;;;;68.33;27.47;;;21.20;99.90;;;;;;5128896;27;20221;-66
2021/07/16 08:00:58;;;;;;;64.50;29.37;;;21.20;99.90;;;;;;5127586;27;20786;-66
2021/07/16 08:03:46;;;;;;;74.23;29.17;;;21.20;99.90;;;;;;5132834;27;20194;-66
2021/07/16 08:06:34;;;;;;;74.63;31.57;;;21.30;99.90;;;;;;5132808;27;20712;-66
2021/07/16 08:09:23;;;;;;;80.13;34.87;;;21.40;99.90;;;;;;5143912;27;20190;-66
2021/07/16 08:12:11;;;;;;;73.30;32.27;;;21.50;99.90;;;;;;5137985;27;20255;-66
2021/07/16 08:14:58;;;;;;;76.23;33.90;;;21.60;99.90;;;;;;5140599;27;20193;-66
2021/07/16 08:17:46;;;;;;;74.07;32.37;;;21.60;99.90;;;;;;5146408;27;20201;-66
2021/07/16 08:20:33;;;;;;;77.70;32.47;;;21.60;99.90;;;;;;5145111;27;20201;-66
2021/07/16 08:23:21;;;;;;;67.57;31.87;;;21.60;99.90;;;;;;5135951;27;20199;-66
2021/07/16 08:26:11;;;;;;;80.63;30.83;;;21.60;99.90;;;;;;5142682;27;20234;-66
2021/07/16 08:28:59;;;;;;;71.97;32.17;;;21.60;99.90;;;;;;5123270;27;20198;-66
2021/07/16 08:31:47;;;;;;;74.90;32.83;;;21.70;99.90;;;;;;5153692;27;20200;-67
2021/07/16 08:34:35;;;;;;;73.53;31.50;;;21.70;99.90;;;;;;5133272;27;20196;-66
2021/07/16 08:37:22;;;;;;;73.50;30.73;;;21.70;99.90;;;;;;5152211;27;20197;-67
2021/07/16 08:40:11;;;;;;;70.57;30.63;;;21.60;99.90;;;;;;5131580;27;20298;-66
2021/07/16 08:43:00;;;;;;;79.00;31.87;;;21.60;99.90;;;;;;5138807;27;20205;-67
2021/07/16 08:45:47;;;;;;;73.30;31.47;;;21.70;99.90;;;;;;5120316;27;20218;-66
2021/07/16 08:48:36;;;;;;;69.37;30.50;;;21.90;99.90;;;;;;5151275;27;20273;-66
2021/07/16 08:51:23;;;;;;;70.23;31.10;;;22.00;99.90;;;;;;5129067;27;20202;-65
2021/07/16 08:54:14;;;;;;;64.70;30.13;;;22.20;99.90;;;;;;5120512;27;20682;-65
2021/07/16 08:57:02;;;;;;;61.00;28.20;;;22.30;99.90;;;;;;5140580;27;20334;-65
2021/07/16 08:59:51;;;;;;;70.67;30.50;;;22.30;99.90;;;;;;5132004;27;20202;-66
2021/07/16 09:02:51;;;;;;;68.30;29.80;;;22.50;99.90;;;;;;5144790;27;20194;-66
2021/07/16 09:05:40;;;;;;;63.70;29.43;;;22.60;99.90;;;;;;5147321;27;20379;-66
2021/07/16 09:08:28;;;;;;;77.37;33.13;;;22.60;99.90;;;;;;5126763;27;20187;-65
2021/07/16 09:11:20;;;;;;;69.40;32.33;;;22.60;99.90;;;;;;5131307;27;20225;-65
2021/07/16 09:14:08;;;;;;;66.43;31.80;;;22.90;99.90;;;;;;5134606;27;20194;-66
2021/07/16 09:16:59;;;;;;;68.00;33.00;;;23.10;99.90;;;;;;5128145;27;20201;-66
2021/07/16 09:19:47;;;;;;;69.07;31.50;;;23.40;99.90;;;;;;5127353;27;20226;-66
2021/07/16 09:22:36;;;;;;;63.87;30.23;;;23.70;99.90;;;;;;5139599;27;20644;-66
2021/07/16 09:25:25;;;;;;;67.50;30.97;;;24.00;99.90;;;;;;5140571;27;20242;-66
2021/07/16 09:28:27;;;;;;;60.90;30.30;;;24.20;99.90;;;;;;5146923;27;20202;-66
2021/07/16 09:31:17;;;;;;;63.85;31.95;;;24.60;99.90;;;;;;5131342;27;20206;-66
2021/07/16 09:34:09;;;;;;;69.82;32.95;;;25.00;99.90;;;;;;5135149;27;20668;-66
2021/07/16 09:36:57;;;;;;;60.05;29.48;;;25.30;99.90;;;;;;5150563;27;20190;-66
2021/07/16 09:39:46;;;;;;;52.97;27.67;;;25.70;99.90;;;;;;5131272;27;20298;-66
2021/07/16 09:42:37;;;;;;;51.30;27.67;;;26.20;99.90;;;;;;5133942;27;20354;-66
2021/07/16 09:45:25;;;;;;;57.67;27.48;;;26.20;99.90;;;;;;5144173;27;20657;-66
2021/07/16 09:48:23;;;;;;;44.03;24.33;;;26.50;99.90;;;;;;5115568;27;20552;-66
2021/07/16 09:51:19;;;;;;;44.20;24.95;;;26.80;99.90;;;;;;5123062;27;20326;-65
2021/07/16 09:54:07;;;;;;;45.22;25.02;;;27.00;99.90;;;;;;5131465;27;20205;-66
2021/07/16 09:56:54;;;;;;;42.20;23.08;;;27.20;99.90;;;;;;5143960;27;20190;-66
2021/07/16 09:59:44;;;;;;;43.05;22.15;;;27.50;99.90;;;;;;5135084;27;20655;-66
2021/07/16 10:02:32;;;;;;;31.70;19.88;;;27.30;99.90;;;;;;5151061;27;20285;-66
2021/07/16 10:05:19;;;;;;;42.13;22.75;;;27.30;99.90;;;;;;5148019;27;20210;-65
2021/07/16 10:08:09;;;;;;;40.45;22.92;;;27.10;99.90;;;;;;5150934;27;20216;-66
2021/07/16 10:10:56;;;;;;;42.80;22.70;;;26.80;99.90;;;;;;5150654;27;20208;-66
2021/07/16 10:13:44;;;;;;;38.58;22.30;;;27.00;99.90;;;;;;5132904;27;20645;-66
2021/07/16 10:16:35;;;;;;;38.53;21.85;;;27.00;99.90;;;;;;5134615;27;20194;-66
2021/07/16 10:19:23;;;;;;;34.50;21.80;;;27.00;99.90;;;;;;5151085;27;20225;-66
2021/07/16 10:22:12;;;;;;;43.45;22.45;;;27.30;99.90;;;;;;5124318;27;20230;-66
2021/07/16 10:25:01;;;;;;;40.78;23.52;;;27.50;99.90;;;;;;5148869;27;20197;-66
2021/07/16 10:27:49;;;;;;;40.72;21.75;;;27.60;99.90;;;;;;5131941;27;20208;-65
2021/07/16 10:30:40;;;;;;;37.58;20.08;;;28.00;99.90;;;;;;5150547;27;20207;-65
2021/07/16 10:33:35;;;;;;;35.42;19.45;;;28.30;99.90;;;;;;5109149;27;21428;-66
2021/07/16 10:36:40;;;;;;;29.17;17.75;;;28.20;99.90;;;;;;5129609;27;20343;-66
2021/07/16 10:39:46;;;;;;;35.63;18.95;;;28.40;99.90;;;;;;5118318;27;20241;-66
2021/07/16 10:42:44;;;;;;;29.77;18.40;;;28.70;99.90;;;;;;5121496;27;20276;-66
2021/07/16 10:45:32;;;;;;;37.65;18.52;;;29.10;99.90;;;;;;5124853;27;20218;-66
2021/07/16 10:48:21;;;;;;;33.65;18.15;;;29.30;99.90;;;;;;5120727;27;20283;-65
2021/07/16 10:51:09;;;;;;;32.13;16.88;;;29.90;99.90;;;;;;5123814;27;20342;-66
2021/07/16 10:53:57;;;;;;;25.50;15.88;;;30.10;99.90;;;;;;5122445;27;20195;-66
2021/07/16 10:56:45;;;;;;;30.50;18.33;;;30.20;99.90;;;;;;5111840;27;20203;-66
2021/07/16 10:59:48;;;;;;;31.92;17.65;;;30.10;99.90;;;;;;5130106;27;20206;-66
2021/07/16 11:02:43;;;;;;;30.23;16.23;;;30.10;99.90;;;;;;5126884;27;20713;-67
2021/07/16 11:05:55;;;;;;;26.70;14.38;;;29.60;99.90;;;;;;5130368;27;20210;-66
2021/07/16 11:09:03;;;;;;;27.25;14.00;;;28.90;99.90;;;;;;5117846;27;20646;-66
2021/07/16 11:11:51;;;;;;;19.27;13.65;;;28.00;99.90;;;;;;5144532;27;20293;-66
2021/07/16 11:14:46;;;;;;;25.55;12.25;;;27.30;99.90;;;;;;5119876;27;20872;-66
2021/07/16 11:17:36;;;;;;;23.20;12.75;;;26.70;99.90;;;;;;5124796;27;20194;-67
2021/07/16 11:20:32;;;;;;;20.60;12.15;;;26.10;99.90;;;;;;5124793;27;20546;-66
2021/07/16 11:23:20;;;;;;;20.23;11.93;;;25.70;99.90;;;;;;5113927;27;20199;-66
2021/07/16 11:26:16;;;;;;;19.58;11.80;;;25.50;99.90;;;;;;5127236;27;20256;-66
2021/07/16 11:29:07;;;;;;;18.90;11.32;;;25.30;99.90;;;;;;5127507;27;20198;-65
2021/07/16 11:32:20;;;;;;;20.88;12.60;;;25.30;99.90;;;;;;5132852;27;20666;-66
2021/07/16 11:35:10;;;;;;;25.40;12.05;;;25.00;99.90;;;;;;5072518;28;20791;-66
2021/07/16 11:37:57;;;;;;;22.15;13.05;;;24.80;99.90;;;;;;5057245;28;20201;-66
2021/07/16 11:40:45;;;;;;;21.08;12.38;;;24.60;99.90;;;;;;5062242;28;20215;-66
2021/07/16 11:43:33;;;;;;;31.70;13.32;;;24.40;99.90;;;;;;5060712;28;20666;-66
2021/07/16 11:46:27;;;;;;;29.27;13.70;;;24.30;99.90;;;;;;5061778;28;20286;-65
2021/07/16 11:49:25;;;;;;;27.02;14.32;;;24.10;99.90;;;;;;5070155;28;20211;-66
2021/07/16 11:52:16;;;;;;;25.05;14.85;;;23.60;99.90;;;;;;5063980;28;20792;-65
2021/07/16 11:55:09;;;;;;;28.00;14.68;;;23.40;99.90;;;;;;5088223;28;20234;-66
2021/07/16 11:57:57;;;;;;;32.78;16.20;;;23.20;99.90;;;;;;5066088;28;20196;-66
2021/07/16 12:00:44;;;;;;;32.58;17.67;;;23.00;99.90;;;;;;5062477;28;20212;-66
2021/07/16 12:03:32;;;;;;;29.52;16.70;;;23.20;99.90;;;;;;5066506;28;20212;-65
2021/07/16 12:06:21;;;;;;;31.75;19.13;;;23.40;99.90;;;;;;5062232;28;20219;-65
2021/07/16 12:09:09;;;;;;;30.88;17.73;;;23.70;99.90;;;;;;5079380;28;20216;-66
2021/07/16 12:12:01;;;;;;;29.85;17.52;;;23.90;99.90;;;;;;5114734;27;20194;-66
2021/07/16 12:14:54;;;;;;;29.20;16.77;;;24.00;99.90;;;;;;5134803;27;20642;-66
2021/07/16 12:17:49;;;;;;;26.42;16.55;;;24.30;99.90;;;;;;5133892;27;20668;-65
2021/07/16 12:20:38;;;;;;;28.30;15.90;;;24.50;99.90;;;;;;5151492;27;20197;-66
2021/07/16 12:23:27;;;;;;;25.27;14.90;;;24.70;99.90;;;;;;5129475;27;20681;-65
2021/07/16 12:26:18;;;;;;;26.60;16.15;;;24.80;99.90;;;;;;5134642;27;20222;-65
2021/07/16 12:29:07;;;;;;;28.30;16.60;;;25.20;99.90;;;;;;5140352;27;20242;-66
2021/07/16 12:31:55;;;;;;;29.85;16.58;;;25.40;99.90;;;;;;5151829;27;20311;-66
2021/07/16 12:34:46;;;;;;;25.08;16.10;;;25.60;99.90;;;;;;5142472;27;20201;-66
2021/07/16 12:37:37;;;;;;;32.47;16.67;;;25.60;99.90;;;;;;5143502;27;20609;-66
2021/07/16 12:40:26;;;;;;;23.88;15.70;;;25.50;99.90;;;;;;5131028;27;20198;-66
2021/07/16 12:43:14;;;;;;;32.72;15.23;;;25.30;99.90;;;;;;5152448;27;20205;-65
2021/07/16 12:46:02;;;;;;;22.38;15.18;;;25.40;99.90;;;;;;5140063;27;20225;-65
2021/07/16 12:48:50;;;;;;;22.27;15.35;;;25.50;99.90;;;;;;5133843;27;20209;-65
2021/07/16 12:51:40;;;;;;;25.42;15.48;;;25.60;99.90;;;;;;5132732;27;20201;-66
2021/07/16 12:54:28;;;;;;;24.33;14.93;;;25.60;99.90;;;;;;5135273;27;20566;-66
2021/07/16 12:57:19;;;;;;;24.30;15.85;;;25.70;99.90;;;;;;5132087;27;20199;-65
2021/07/16 13:00:16;;;;;;;22.40;15.10;;;26.20;99.90;;;;;;5132647;27;20201;-65
2021/07/16 13:03:20;;;;;;;24.83;15.80;;;26.40;99.90;;;;;;5141504;27;20198;-66
2021/07/16 13:06:23;;;;;;;21.13;14.63;;;26.50;99.90;;;;;;5128389;27;20240;-66
2021/07/16 13:09:12;;;;;;;24.48;14.77;;;26.50;99.90;;;;;;5130031;27;20220;-66
2021/07/16 13:12:01;;;;;;;26.77;15.60;;;26.50;99.90;;;;;;5133631;27;20198;-66
2021/07/16 13:14:54;;;;;;;18.42;13.93;;;26.60;99.90;;;;;;5132293;27;20195;-66
2021/07/16 13:17:41;;;;;;;22.52;15.40;;;26.60;99.90;;;;;;5129098;27;20209;-66
2021/07/16 13:20:29;;;;;;;24.10;16.20;;;26.70;99.90;;;;;;5125360;27;20529;-66
2021/07/16 13:23:17;;;;;;;24.73;15.60;;;27.20;99.90;;;;;;5133565;27;20194;-65
2021/07/16 13:26:05;;;;;;;23.35;16.15;;;28.00;99.90;;;;;;5132240;27;20199;-66
2021/07/16 13:28:52;;;;;;;24.23;14.63;;;28.20;99.90;;;;;;5134204;27;20677;-65
2021/07/16 13:31:42;;;;;;;22.27;14.23;;;28.50;99.90;;;;;;5132196;27;20191;-65
2021/07/16 13:34:30;;;;;;;24.08;15.18;;;28.60;99.90;;;;;;5154168;27;20198;-66
2021/07/16 13:37:18;;;;;;;21.67;14.60;;;28.60;99.90;;;;;;5151454;27;20652;-66
2021/07/16 13:40:07;;;;;;;21.38;13.23;;;28.50;99.90;;;;;;5157825;27;20572;-66
2021/07/16 13:42:55;;;;;;;21.67;13.23;;;28.80;99.90;;;;;;5164897;27;20200;-66
2021/07/16 13:45:43;;;;;;;20.73;12.25;;;29.30;99.90;;;;;;5158672;27;20675;-65
2021/07/16 13:48:32;;;;;;;21.05;12.45;;;29.50;99.90;;;;;;5132580;27;20542;-66
2021/07/16 13:51:20;;;;;;;19.83;12.48;;;29.40;99.90;;;;;;5148462;27;20200;-65
2021/07/16 13:54:08;;;;;;;23.20;13.77;;;29.30;99.90;;;;;;5171943;27;20272;-66
2021/07/16 13:56:56;;;;;;;22.52;13.02;;;29.60;99.90;;;;;;5172439;27;20186;-66
2021/07/16 13:59:43;;;;;;;22.55;13.93;;;29.40;99.90;;;;;;5167373;27;20580;-65
2021/07/16 14:02:31;;;;;;;22.85;13.80;;;29.40;99.90;;;;;;5167104;27;20553;-65
2021/07/16 14:05:22;;;;;;;20.08;13.60;;;29.50;99.90;;;;;;5161172;27;20201;-66
2021/07/16 14:08:10;;;;;;;25.73;14.00;;;29.40;99.90;;;;;;5160006;27;20269;-65
2021/07/16 14:10:58;;;;;;;29.10;14.07;;;29.60;99.90;;;;;;5161075;27;20601;-66
2021/07/16 14:13:46;;;;;;;23.75;14.68;;;30.20;99.90;;;;;;5166481;27;20189;-65
2021/07/16 14:16:35;;;;;;;27.42;14.20;;;30.20;99.90;;;;;;5164027;27;20198;-66
2021/07/16 14:19:23;;;;;;;25.85;13.98;;;30.40;99.90;;;;;;5157943;27;20713;-66